createdAt,value
2022-08-17T00:00:34.323Z,101027.91
2022-08-17T00:05:41.668Z,101031.75
2022-08-17T00:10:45.824Z,101025.47
2022-08-17T00:15:47.710Z,101035.28
2022-08-17T00:20:49.225Z,101038.19
2022-08-17T00:25:52.263Z,101039.75
2022-08-17T00:30:54.312Z,101040.59
2022-08-17T00:35:57.188Z,101045.78
2022-08-17T00:41:05.634Z,101028.84
2022-08-17T00:46:16.294Z,101031.41
2022-08-17T00:51:29.795Z,101030.06
2022-08-17T00:56:37.843Z,101029.09
2022-08-17T01:01:40.156Z,101020.00
2022-08-17T01:06:42.817Z,101014.06
2022-08-17T01:11:45.476Z,101006.00
2022-08-17T01:16:49.359Z,101004.97
2022-08-17T01:21:59.389Z,101002.84
2022-08-17T01:27:02.901Z,100999.69
2022-08-17T01:32:12.709Z,101012.13
2022-08-17T01:37:14.542Z,101016.91
2022-08-17T01:42:23.692Z,101003.88
2022-08-17T01:47:25.892Z,101004.38
2022-08-17T01:52:27.422Z,100996.03
2022-08-17T01:57:28.939Z,101002.91
2022-08-17T02:02:31.582Z,101005.22
2022-08-17T02:07:47.936Z,100996.38
2022-08-17T02:12:55.731Z,101006.06
2022-08-17T02:17:57.297Z,101003.28
2022-08-17T02:23:02.389Z,100998.56
2022-08-17T02:28:04.575Z,100999.66
2022-08-17T02:33:09.246Z,101012.00
2022-08-17T02:38:11.044Z,101008.47
2022-08-17T02:43:13.945Z,101012.06
2022-08-17T02:48:15.515Z,101021.59
2022-08-17T02:53:35.662Z,101005.91
2022-08-17T02:58:37.866Z,101008.84
2022-08-17T03:03:39.888Z,101008.84
2022-08-17T03:08:41.367Z,101007.75
2022-08-17T03:13:42.877Z,101008.19
2022-08-17T03:18:44.381Z,101028.97
2022-08-17T03:23:45.867Z,101043.00
2022-08-17T03:28:47.359Z,101077.44
2022-08-17T03:33:48.873Z,101107.88
2022-08-17T03:38:50.428Z,101123.63
2022-08-17T03:43:52.629Z,101137.06
2022-08-17T03:49:13.527Z,101147.41
2022-08-17T03:54:33.876Z,101146.50
2022-08-17T03:59:36.138Z,101118.94
2022-08-17T04:04:38.345Z,101074.81
2022-08-17T04:09:40.039Z,101098.22
2022-08-17T04:14:53.699Z,101126.88
2022-08-17T04:19:56.727Z,101121.09
2022-08-17T04:24:59.061Z,101108.78
2022-08-17T04:30:01.002Z,101111.59
2022-08-17T04:35:02.505Z,101102.91
2022-08-17T04:40:23.102Z,101118.44
2022-08-17T04:45:32.188Z,101125.03
2022-08-17T04:50:36.969Z,101106.53
2022-08-17T04:55:38.833Z,101094.59
2022-08-17T05:00:40.425Z,101098.47
2022-08-17T05:05:49.695Z,101089.31
2022-08-17T05:10:52.095Z,101081.88
2022-08-17T05:15:56.807Z,101100.84
2022-08-17T05:20:58.854Z,101097.25
2022-08-17T05:26:00.428Z,101088.31
2022-08-17T05:31:03.730Z,101082.34
2022-08-17T05:36:08.021Z,101072.16
2022-08-17T05:41:09.957Z,101070.38
2022-08-17T05:46:28.055Z,101078.88
2022-08-17T05:51:51.199Z,101090.75
2022-08-17T05:57:07.522Z,101099.28
2022-08-17T06:02:36.208Z,101090.09
2022-08-17T06:08:08.534Z,101070.72
2022-08-17T06:13:31.375Z,101089.44
2022-08-17T06:18:43.613Z,101079.03
2022-08-17T06:23:50.677Z,101077.97
2022-08-17T06:28:59.056Z,101073.00
2022-08-17T06:34:03.117Z,101074.28
2022-08-17T06:39:48.101Z,101075.50
2022-08-17T06:44:57.617Z,101091.19
2022-08-17T06:50:09.075Z,101092.97
2022-08-17T06:55:18.562Z,101093.75
2022-08-17T07:00:24.636Z,101089.84
2022-08-17T07:05:33.873Z,101098.09
2022-08-17T07:11:04.051Z,101116.38
2022-08-17T07:16:30.474Z,101125.75
2022-08-17T07:21:44.018Z,101127.66
2022-08-17T07:26:46.625Z,101129.75
2022-08-17T07:31:48.186Z,101129.06
2022-08-17T07:37:03.398Z,101139.22
2022-08-17T07:42:05.288Z,101143.34
2022-08-17T07:47:35.468Z,101153.31
2022-08-17T07:52:50.501Z,101155.69
2022-08-17T07:57:58.688Z,101163.16
2022-08-17T08:03:26.217Z,101157.59
2022-08-17T08:08:37.677Z,101169.31
2022-08-17T08:13:43.624Z,101174.53
2022-08-17T08:18:55.429Z,101187.13
2022-08-17T08:24:24.584Z,101183.41
2022-08-17T08:29:56.411Z,101184.31
2022-08-17T08:35:04.325Z,101205.25
2022-08-17T08:40:27.645Z,101189.56
2022-08-17T08:46:03.392Z,101188.88
2022-08-17T08:51:42.818Z,101198.03
2022-08-17T08:57:22.296Z,101182.97
2022-08-17T09:02:34.567Z,101145.94
2022-08-17T09:07:39.290Z,101134.41
2022-08-17T09:12:53.122Z,101144.41
2022-08-17T09:18:59.018Z,101133.31
2022-08-17T09:23:32.434Z,101128.63
2022-08-17T09:28:36.493Z,101125.16
2022-08-17T09:33:44.364Z,101125.13
2022-08-17T09:38:58.255Z,101140.59
2022-08-17T09:44:23.027Z,101141.22
2022-08-17T09:49:34.265Z,101140.31
2022-08-17T09:54:40.664Z,101152.41
2022-08-17T10:00:16.706Z,101125.06
2022-08-17T10:05:57.469Z,101140.31
2022-08-17T10:11:11.556Z,101139.66
2022-08-17T10:16:32.438Z,101152.66
2022-08-17T10:22:01.041Z,101162.88
2022-08-17T10:27:20.136Z,101147.75
2022-08-17T10:32:32.308Z,101149.16
2022-08-17T10:37:36.373Z,101158.06
2022-08-17T10:42:59.592Z,101172.50
2022-08-17T10:48:26.780Z,101186.59
2022-08-17T10:53:31.310Z,101203.41
2022-08-17T10:58:56.253Z,101206.66
2022-08-17T11:04:03.471Z,101176.84
2022-08-17T11:09:11.809Z,101169.78
2022-08-17T11:14:28.024Z,101158.47
2022-08-17T11:19:48.179Z,101169.56
2022-08-17T11:24:52.933Z,101181.94
2022-08-17T11:30:34.780Z,101171.66
2022-08-17T11:35:51.553Z,101195.72
2022-08-17T11:41:34.475Z,101188.94
2022-08-17T11:46:54.673Z,101183.00
2022-08-17T11:51:59.515Z,101185.75
2022-08-17T11:57:30.146Z,101174.34
2022-08-17T12:02:35.696Z,101188.50
2022-08-17T12:07:42.992Z,101205.41
2022-08-17T12:12:45.770Z,101209.91
2022-08-17T12:17:54.752Z,101193.19
2022-08-17T12:23:06.753Z,101203.56
2022-08-17T12:28:25.872Z,101206.44
2022-08-17T12:33:28.860Z,101209.69
2022-08-17T12:38:34.592Z,101230.06
2022-08-17T12:43:36.448Z,101257.97
2022-08-17T12:48:37.986Z,101271.81
2022-08-17T12:53:40.809Z,101276.28
2022-08-17T12:58:53.331Z,101272.97
2022-08-17T13:03:59.587Z,101276.63
2022-08-17T13:09:19.429Z,101277.56
2022-08-17T13:14:21.465Z,101245.97
2022-08-17T13:19:29.885Z,101244.03
2022-08-17T13:24:55.085Z,101238.53
2022-08-17T13:30:00.370Z,101214.94
2022-08-17T13:35:29.459Z,101216.47
2022-08-17T13:40:45.224Z,101213.44
2022-08-17T13:45:50.847Z,101212.34
2022-08-17T13:50:55.289Z,101217.19
2022-08-17T13:56:37.502Z,101200.53
2022-08-17T14:01:35.435Z,101164.44
2022-08-17T14:06:52.817Z,101174.66
2022-08-17T14:11:57.587Z,101177.63
2022-08-17T14:16:59.266Z,101173.66
2022-08-17T14:22:01.135Z,101165.47
2022-08-17T14:27:05.374Z,101147.88
2022-08-17T14:32:17.072Z,101156.84
2022-08-17T14:37:20.117Z,101158.88
2022-08-17T14:42:24.667Z,101152.41
2022-08-17T14:47:26.598Z,101163.75
2022-08-17T14:52:29.298Z,101158.69
2022-08-17T14:57:34.276Z,101149.72
2022-08-17T15:02:48.661Z,101145.00
2022-08-17T15:07:50.510Z,101147.63
2022-08-17T15:12:52.185Z,101144.34
2022-08-17T15:17:54.523Z,101142.63
2022-08-17T15:22:58.699Z,101140.53
2022-08-17T15:28:01.396Z,101127.69
2022-08-17T15:33:03.244Z,101133.75
2022-08-17T15:38:11.546Z,101123.72
2022-08-17T15:43:27.310Z,101115.69
2022-08-17T15:48:43.591Z,101120.88
2022-08-17T15:53:47.884Z,101115.78
2022-08-17T15:58:49.963Z,101115.53
2022-08-17T16:04:06.685Z,101101.00
2022-08-17T16:09:15.097Z,101105.91
2022-08-17T16:14:16.880Z,101110.91
2022-08-17T16:19:18.680Z,101109.06
2022-08-17T16:24:20.182Z,101121.66
2022-08-17T16:29:22.063Z,101127.13
2022-08-17T16:34:23.824Z,101138.06
2022-08-17T16:39:29.015Z,101135.81
2022-08-17T16:44:32.123Z,101121.31
2022-08-17T16:49:36.832Z,101130.78
2022-08-17T16:54:43.445Z,101138.09
2022-08-17T16:59:48.083Z,101134.06
2022-08-17T17:04:57.906Z,101143.00
2022-08-17T17:10:06.826Z,101155.78
2022-08-17T17:15:10.388Z,101154.16
2022-08-17T17:20:17.356Z,101152.69
2022-08-17T17:25:21.764Z,101151.44
2022-08-17T17:30:52.939Z,101157.59
2022-08-17T17:35:59.204Z,101152.50
2022-08-17T17:41:05.822Z,101157.38
2022-08-17T17:46:27.126Z,101167.00
2022-08-17T17:52:08.764Z,101185.34
2022-08-17T17:57:18.871Z,101185.94
2022-08-17T18:03:15.125Z,101203.22
2022-08-17T18:08:33.953Z,101211.97
2022-08-17T18:14:15.951Z,101223.28
2022-08-17T18:19:24.912Z,101230.75
2022-08-17T18:24:32.238Z,101228.00
2022-08-17T18:29:39.847Z,101220.72
2022-08-17T18:34:48.313Z,101224.13
2022-08-17T18:39:50.361Z,101217.09
2022-08-17T18:44:55.367Z,101216.91
2022-08-17T18:50:17.932Z,101213.50
2022-08-17T18:55:27.711Z,101213.53
2022-08-17T19:00:35.770Z,101223.97
2022-08-17T19:05:44.601Z,101220.84
2022-08-17T19:10:49.949Z,101227.84
2022-08-17T19:16:12.160Z,101234.88
2022-08-17T19:21:25.497Z,101236.78
2022-08-17T19:26:53.797Z,101242.34
2022-08-17T19:31:58.359Z,101250.84
2022-08-17T19:37:10.953Z,101260.91
2022-08-17T19:42:25.183Z,101264.50
2022-08-17T19:47:54.774Z,101259.81
2022-08-17T19:53:07.268Z,101248.31
2022-08-17T19:58:08.772Z,101269.22
2022-08-17T20:03:22.112Z,101254.28
2022-08-17T20:08:32.583Z,101242.44
2022-08-17T20:13:42.828Z,101258.38
2022-08-17T20:19:11.235Z,101269.22
2022-08-17T20:24:37.211Z,101237.72
2022-08-17T20:30:06.806Z,101273.38
2022-08-17T20:35:44.549Z,101259.59
2022-08-17T20:40:55.055Z,101275.31
2022-08-17T20:46:19.936Z,101278.09
2022-08-17T20:51:25.892Z,101270.84
2022-08-17T20:56:43.350Z,101267.22
2022-08-17T21:02:18.314Z,101240.22
2022-08-17T21:07:42.932Z,101255.97
2022-08-17T21:12:57.986Z,101231.28
2022-08-17T21:18:11.933Z,101256.56
2022-08-17T21:23:22.323Z,101229.63
2022-08-17T21:29:00.313Z,101231.69
2022-08-17T21:34:15.045Z,101233.66
2022-08-17T21:39:24.247Z,101227.50
2022-08-17T21:44:50.701Z,101229.66
2022-08-17T21:49:54.463Z,101246.72
2022-08-17T21:55:02.436Z,101238.03
2022-08-17T22:00:15.641Z,101270.63
2022-08-17T22:05:31.491Z,101258.34
2022-08-17T22:10:34.493Z,101288.13
2022-08-17T22:15:39.999Z,101271.56
2022-08-17T22:20:41.592Z,101287.75
2022-08-17T22:26:05.769Z,101286.28
2022-08-17T22:31:22.969Z,101300.56
2022-08-17T22:36:34.476Z,101311.19
2022-08-17T22:41:35.986Z,101322.88
2022-08-17T22:46:41.488Z,101291.59
2022-08-17T22:51:43.106Z,101291.81
2022-08-17T22:57:14.822Z,101290.09
2022-08-17T23:02:24.907Z,101287.38
2022-08-17T23:07:26.467Z,101316.50
2022-08-17T23:12:28.065Z,101274.59
2022-08-17T23:17:37.225Z,101278.00
2022-08-17T23:22:52.287Z,101281.00
2022-08-17T23:27:57.568Z,101292.50
2022-08-17T23:33:04.173Z,101281.66
2022-08-17T23:38:05.785Z,101283.78
2022-08-17T23:43:23.327Z,101293.38
2022-08-17T23:48:36.314Z,101281.44
2022-08-17T23:53:44.708Z,101286.75
2022-08-17T23:58:46.372Z,101274.84
